sensor_id;sensor_type;location;lat;lon;timestamp;P1;durP1;ratioP1;P2;durP2;ratioP2
8663;SDS011;4369;47.842;13.096;2024-01-30T00:01:49;15.63;;;10.03;;
8663;SDS011;4369;47.842;13.096;2024-01-30T00:04:17;14.63;;;10.40;;
8663;SDS011;4369;47.842;13.096;2024-01-30T00:06:43;15.60;;;10.67;;
8663;SDS011;4369;47.842;13.096;2024-01-30T00:09:10;15.60;;;9.87;;
8663;SDS011;4369;47.842;13.096;2024-01-30T00:11:39;15.83;;;10.27;;
8663;SDS011;4369;47.842;13.096;2024-01-30T00:14:06;15.67;;;10.50;;
8663;SDS011;4369;47.842;13.096;2024-01-30T00:16:33;16.33;;;10.67;;
8663;SDS011;4369;47.842;13.096;2024-01-30T00:19:00;13.63;;;10.67;;
8663;SDS011;4369;47.842;13.096;2024-01-30T00:21:28;15.00;;;10.33;;
8663;SDS011;4369;47.842;13.096;2024-01-30T00:23:55;13.13;;;10.03;;
8663;SDS011;4369;47.842;13.096;2024-01-30T00:26:22;14.20;;;10.50;;
8663;SDS011;4369;47.842;13.096;2024-01-30T00:28:51;15.57;;;10.80;;
8663;SDS011;4369;47.842;13.096;2024-01-30T00:31:17;14.77;;;10.57;;
8663;SDS011;4369;47.842;13.096;2024-01-30T00:33:44;17.17;;;10.40;;
8663;SDS011;4369;47.842;13.096;2024-01-30T00:36:11;16.43;;;11.77;;
8663;SDS011;4369;47.842;13.096;2024-01-30T00:38:38;15.83;;;11.93;;
8663;SDS011;4369;47.842;13.096;2024-01-30T00:41:06;14.70;;;10.77;;
8663;SDS011;4369;47.842;13.096;2024-01-30T00:43:33;15.87;;;10.90;;
8663;SDS011;4369;47.842;13.096;2024-01-30T00:46:02;18.10;;;11.83;;
8663;SDS011;4369;47.842;13.096;2024-01-30T00:48:29;18.47;;;11.93;;
8663;SDS011;4369;47.842;13.096;2024-01-30T00:50:56;21.30;;;12.83;;
8663;SDS011;4369;47.842;13.096;2024-01-30T00:53:23;18.37;;;12.47;;
8663;SDS011;4369;47.842;13.096;2024-01-30T00:55:50;18.57;;;12.17;;
8663;SDS011;4369;47.842;13.096;2024-01-30T00:58:17;22.67;;;13.67;;
8663;SDS011;4369;47.842;13.096;2024-01-30T01:00:44;17.97;;;12.07;;
8663;SDS011;4369;47.842;13.096;2024-01-30T01:03:12;19.03;;;12.27;;
8663;SDS011;4369;47.842;13.096;2024-01-30T01:05:40;17.37;;;12.50;;
8663;SDS011;4369;47.842;13.096;2024-01-30T01:08:07;19.60;;;12.13;;
8663;SDS011;4369;47.842;13.096;2024-01-30T01:10:34;15.77;;;11.93;;
8663;SDS011;4369;47.842;13.096;2024-01-30T01:13:01;16.00;;;12.00;;
8663;SDS011;4369;47.842;13.096;2024-01-30T01:15:28;17.50;;;11.63;;
8663;SDS011;4369;47.842;13.096;2024-01-30T01:17:56;16.27;;;10.47;;
8663;SDS011;4369;47.842;13.096;2024-01-30T01:20:24;15.10;;;10.60;;
8663;SDS011;4369;47.842;13.096;2024-01-30T01:22:51;18.13;;;11.40;;
8663;SDS011;4369;47.842;13.096;2024-01-30T01:25:19;16.70;;;11.97;;
8663;SDS011;4369;47.842;13.096;2024-01-30T01:27:46;15.83;;;13.03;;
8663;SDS011;4369;47.842;13.096;2024-01-30T01:30:16;20.17;;;12.63;;
8663;SDS011;4369;47.842;13.096;2024-01-30T01:32:46;21.17;;;12.80;;
8663;SDS011;4369;47.842;13.096;2024-01-30T01:35:19;19.47;;;13.50;;
8663;SDS011;4369;47.842;13.096;2024-01-30T01:37:49;21.23;;;13.20;;
8663;SDS011;4369;47.842;13.096;2024-01-30T01:40:20;22.97;;;13.80;;
8663;SDS011;4369;47.842;13.096;2024-01-30T01:42:49;21.63;;;14.07;;
8663;SDS011;4369;47.842;13.096;2024-01-30T01:45:16;22.23;;;14.27;;
8663;SDS011;4369;47.842;13.096;2024-01-30T01:47:43;18.67;;;12.97;;
8663;SDS011;4369;47.842;13.096;2024-01-30T01:50:12;20.87;;;12.80;;
8663;SDS011;4369;47.842;13.096;2024-01-30T01:52:39;15.43;;;12.60;;
8663;SDS011;4369;47.842;13.096;2024-01-30T01:55:09;16.83;;;12.10;;
8663;SDS011;4369;47.842;13.096;2024-01-30T01:57:37;18.17;;;12.63;;
8663;SDS011;4369;47.842;13.096;2024-01-30T02:00:04;16.37;;;11.23;;
8663;SDS011;4369;47.842;13.096;2024-01-30T02:02:34;18.67;;;12.03;;
8663;SDS011;4369;47.842;13.096;2024-01-30T02:05:02;20.97;;;11.67;;
8663;SDS011;4369;47.842;13.096;2024-01-30T02:07:29;16.20;;;11.57;;
8663;SDS011;4369;47.842;13.096;2024-01-30T02:09:56;18.90;;;12.23;;
8663;SDS011;4369;47.842;13.096;2024-01-30T02:12:25;17.10;;;11.93;;
8663;SDS011;4369;47.842;13.096;2024-01-30T02:14:51;17.93;;;12.60;;
8663;SDS011;4369;47.842;13.096;2024-01-30T02:17:20;19.27;;;12.67;;
8663;SDS011;4369;47.842;13.096;2024-01-30T02:19:48;16.63;;;11.90;;
8663;SDS011;4369;47.842;13.096;2024-01-30T02:22:16;16.70;;;12.27;;
8663;SDS011;4369;47.842;13.096;2024-01-30T02:24:44;17.63;;;12.93;;
8663;SDS011;4369;47.842;13.096;2024-01-30T02:27:11;24.30;;;13.23;;
8663;SDS011;4369;47.842;13.096;2024-01-30T02:29:38;19.33;;;13.13;;
8663;SDS011;4369;47.842;13.096;2024-01-30T02:32:05;22.90;;;13.77;;
8663;SDS011;4369;47.842;13.096;2024-01-30T02:34:32;18.30;;;12.30;;
8663;SDS011;4369;47.842;13.096;2024-01-30T02:37:00;16.27;;;11.97;;
8663;SDS011;4369;47.842;13.096;2024-01-30T02:39:28;15.13;;;10.77;;
8663;SDS011;4369;47.842;13.096;2024-01-30T02:41:55;14.87;;;10.53;;
8663;SDS011;4369;47.842;13.096;2024-01-30T02:44:22;17.40;;;10.83;;
8663;SDS011;4369;47.842;13.096;2024-01-30T02:46:49;16.13;;;11.20;;
8663;SDS011;4369;47.842;13.096;2024-01-30T02:49:16;13.47;;;10.77;;
8663;SDS011;4369;47.842;13.096;2024-01-30T02:51:43;14.80;;;10.70;;
8663;SDS011;4369;47.842;13.096;2024-01-30T02:54:09;17.80;;;12.97;;
8663;SDS011;4369;47.842;13.096;2024-01-30T02:56:38;19.07;;;12.50;;
8663;SDS011;4369;47.842;13.096;2024-01-30T02:59:05;17.53;;;12.37;;
8663;SDS011;4369;47.842;13.096;2024-01-30T03:01:32;16.70;;;10.97;;
8663;SDS011;4369;47.842;13.096;2024-01-30T03:03:59;15.40;;;10.77;;
8663;SDS011;4369;47.842;13.096;2024-01-30T03:06:25;17.47;;;12.03;;
8663;SDS011;4369;47.842;13.096;2024-01-30T03:08:52;19.80;;;13.13;;
8663;SDS011;4369;47.842;13.096;2024-01-30T03:11:19;23.37;;;13.47;;
8663;SDS011;4369;47.842;13.096;2024-01-30T03:13:48;22.23;;;12.70;;
8663;SDS011;4369;47.842;13.096;2024-01-30T03:16:15;17.57;;;12.53;;
8663;SDS011;4369;47.842;13.096;2024-01-30T03:18:41;16.03;;;12.10;;
8663;SDS011;4369;47.842;13.096;2024-01-30T03:21:08;17.63;;;10.93;;
8663;SDS011;4369;47.842;13.096;2024-01-30T03:23:35;16.17;;;10.27;;
8663;SDS011;4369;47.842;13.096;2024-01-30T03:26:02;16.53;;;10.80;;
8663;SDS011;4369;47.842;13.096;2024-01-30T03:28:31;14.53;;;10.73;;
8663;SDS011;4369;47.842;13.096;2024-01-30T03:31:00;20.23;;;12.27;;
8663;SDS011;4369;47.842;13.096;2024-01-30T03:33:27;15.67;;;11.40;;
8663;SDS011;4369;47.842;13.096;2024-01-30T03:35:54;14.57;;;10.63;;
8663;SDS011;4369;47.842;13.096;2024-01-30T03:38:21;17.17;;;10.87;;
8663;SDS011;4369;47.842;13.096;2024-01-30T03:40:48;17.17;;;10.00;;
8663;SDS011;4369;47.842;13.096;2024-01-30T03:43:15;13.73;;;9.23;;
8663;SDS011;4369;47.842;13.096;2024-01-30T03:45:42;13.23;;;8.80;;
8663;SDS011;4369;47.842;13.096;2024-01-30T03:48:10;12.23;;;7.93;;
8663;SDS011;4369;47.842;13.096;2024-01-30T03:50:37;12.93;;;8.10;;
8663;SDS011;4369;47.842;13.096;2024-01-30T03:53:04;11.93;;;7.90;;
8663;SDS011;4369;47.842;13.096;2024-01-30T03:55:31;11.93;;;7.70;;
8663;SDS011;4369;47.842;13.096;2024-01-30T03:57:58;10.87;;;7.50;;
8663;SDS011;4369;47.842;13.096;2024-01-30T04:00:25;15.30;;;9.27;;
8663;SDS011;4369;47.842;13.096;2024-01-30T04:02:52;17.27;;;11.27;;
8663;SDS011;4369;47.842;13.096;2024-01-30T04:05:20;14.77;;;10.60;;
8663;SDS011;4369;47.842;13.096;2024-01-30T04:07:47;15.77;;;11.47;;
8663;SDS011;4369;47.842;13.096;2024-01-30T04:10:14;14.33;;;9.90;;
8663;SDS011;4369;47.842;13.096;2024-01-30T04:12:41;14.80;;;10.63;;
8663;SDS011;4369;47.842;13.096;2024-01-30T04:15:08;18.87;;;12.07;;
8663;SDS011;4369;47.842;13.096;2024-01-30T04:17:35;21.57;;;13.97;;
8663;SDS011;4369;47.842;13.096;2024-01-30T04:20:03;20.73;;;14.20;;
8663;SDS011;4369;47.842;13.096;2024-01-30T04:22:32;20.97;;;13.90;;
8663;SDS011;4369;47.842;13.096;2024-01-30T04:24:59;20.97;;;13.43;;
8663;SDS011;4369;47.842;13.096;2024-01-30T04:27:25;18.60;;;12.60;;
8663;SDS011;4369;47.842;13.096;2024-01-30T04:29:52;21.37;;;14.60;;
8663;SDS011;4369;47.842;13.096;2024-01-30T04:32:19;20.97;;;13.37;;
8663;SDS011;4369;47.842;13.096;2024-01-30T04:34:46;21.42;;;14.90;;
8663;SDS011;4369;47.842;13.096;2024-01-30T04:37:13;19.17;;;12.70;;
8663;SDS011;4369;47.842;13.096;2024-01-30T04:39:42;18.73;;;13.00;;
8663;SDS011;4369;47.842;13.096;2024-01-30T04:42:09;16.87;;;11.67;;
8663;SDS011;4369;47.842;13.096;2024-01-30T04:44:36;14.90;;;10.27;;
8663;SDS011;4369;47.842;13.096;2024-01-30T04:47:03;13.13;;;10.07;;
8663;SDS011;4369;47.842;13.096;2024-01-30T04:49:31;17.13;;;11.70;;
8663;SDS011;4369;47.842;13.096;2024-01-30T04:51:58;13.97;;;11.60;;
8663;SDS011;4369;47.842;13.096;2024-01-30T04:54:25;16.73;;;11.90;;
8663;SDS011;4369;47.842;13.096;2024-01-30T04:56:53;17.17;;;10.77;;
8663;SDS011;4369;47.842;13.096;2024-01-30T04:59:20;20.13;;;12.97;;
8663;SDS011;4369;47.842;13.096;2024-01-30T05:01:47;20.93;;;12.50;;
8663;SDS011;4369;47.842;13.096;2024-01-30T05:04:14;19.07;;;13.60;;
8663;SDS011;4369;47.842;13.096;2024-01-30T05:06:41;17.17;;;11.47;;
8663;SDS011;4369;47.842;13.096;2024-01-30T05:09:08;17.27;;;11.93;;
8663;SDS011;4369;47.842;13.096;2024-01-30T05:11:36;18.50;;;12.83;;
8663;SDS011;4369;47.842;13.096;2024-01-30T05:14:05;19.77;;;12.87;;
8663;SDS011;4369;47.842;13.096;2024-01-30T05:16:32;20.03;;;13.07;;
8663;SDS011;4369;47.842;13.096;2024-01-30T05:18:59;17.23;;;11.97;;
8663;SDS011;4369;47.842;13.096;2024-01-30T05:21:26;19.53;;;13.47;;
8663;SDS011;4369;47.842;13.096;2024-01-30T05:23:53;20.17;;;12.63;;
8663;SDS011;4369;47.842;13.096;2024-01-30T05:26:20;18.43;;;13.20;;
8663;SDS011;4369;47.842;13.096;2024-01-30T05:28:48;20.00;;;12.53;;
8663;SDS011;4369;47.842;13.096;2024-01-30T05:31:16;18.90;;;13.50;;
8663;SDS011;4369;47.842;13.096;2024-01-30T05:33:43;22.60;;;14.13;;
8663;SDS011;4369;47.842;13.096;2024-01-30T05:36:11;20.27;;;13.27;;
8663;SDS011;4369;47.842;13.096;2024-01-30T05:38:38;19.13;;;12.53;;
8663;SDS011;4369;47.842;13.096;2024-01-30T05:41:05;19.50;;;13.23;;
8663;SDS011;4369;47.842;13.096;2024-01-30T05:43:32;19.50;;;12.73;;
8663;SDS011;4369;47.842;13.096;2024-01-30T05:45:59;21.17;;;13.00;;
8663;SDS011;4369;47.842;13.096;2024-01-30T05:48:28;14.10;;;11.13;;
8663;SDS011;4369;47.842;13.096;2024-01-30T05:50:56;17.70;;;10.97;;
8663;SDS011;4369;47.842;13.096;2024-01-30T05:53:23;13.17;;;9.40;;
8663;SDS011;4369;47.842;13.096;2024-01-30T05:55:50;12.80;;;9.07;;
8663;SDS011;4369;47.842;13.096;2024-01-30T05:58:17;13.50;;;8.93;;
8663;SDS011;4369;47.842;13.096;2024-01-30T06:00:44;11.47;;;8.90;;
8663;SDS011;4369;47.842;13.096;2024-01-30T06:03:10;14.93;;;9.70;;
8663;SDS011;4369;47.842;13.096;2024-01-30T06:05:39;15.20;;;10.00;;
8663;SDS011;4369;47.842;13.096;2024-01-30T06:08:06;21.00;;;12.00;;
8663;SDS011;4369;47.842;13.096;2024-01-30T06:10:33;22.23;;;13.23;;
8663;SDS011;4369;47.842;13.096;2024-01-30T06:13:00;23.87;;;13.80;;
8663;SDS011;4369;47.842;13.096;2024-01-30T06:15:27;24.27;;;14.23;;
8663;SDS011;4369;47.842;13.096;2024-01-30T06:17:55;24.67;;;15.80;;
8663;SDS011;4369;47.842;13.096;2024-01-30T06:20:22;24.73;;;16.00;;
8663;SDS011;4369;47.842;13.096;2024-01-30T06:22:50;26.30;;;16.17;;
8663;SDS011;4369;47.842;13.096;2024-01-30T06:25:17;28.53;;;16.33;;
8663;SDS011;4369;47.842;13.096;2024-01-30T06:27:45;23.47;;;15.57;;
8663;SDS011;4369;47.842;13.096;2024-01-30T06:30:12;28.23;;;16.93;;
8663;SDS011;4369;47.842;13.096;2024-01-30T06:32:39;30.80;;;19.63;;
8663;SDS011;4369;47.842;13.096;2024-01-30T06:35:06;31.50;;;18.23;;
8663;SDS011;4369;47.842;13.096;2024-01-30T06:37:35;26.40;;;15.80;;
8663;SDS011;4369;47.842;13.096;2024-01-30T06:40:04;26.63;;;16.07;;
8663;SDS011;4369;47.842;13.096;2024-01-30T06:42:32;30.70;;;17.20;;
8663;SDS011;4369;47.842;13.096;2024-01-30T06:44:59;23.70;;;13.83;;
8663;SDS011;4369;47.842;13.096;2024-01-30T06:47:26;19.50;;;11.53;;
8663;SDS011;4369;47.842;13.096;2024-01-30T06:49:53;19.07;;;11.63;;
8663;SDS011;4369;47.842;13.096;2024-01-30T06:52:20;18.70;;;11.73;;
8663;SDS011;4369;47.842;13.096;2024-01-30T06:54:47;17.90;;;11.47;;
8663;SDS011;4369;47.842;13.096;2024-01-30T06:57:16;17.10;;;11.87;;
8663;SDS011;4369;47.842;13.096;2024-01-30T06:59:43;16.37;;;11.47;;
8663;SDS011;4369;47.842;13.096;2024-01-30T07:02:09;15.60;;;11.43;;
8663;SDS011;4369;47.842;13.096;2024-01-30T07:04:36;17.20;;;11.43;;
8663;SDS011;4369;47.842;13.096;2024-01-30T07:07:04;19.33;;;12.67;;
8663;SDS011;4369;47.842;13.096;2024-01-30T07:09:36;18.20;;;12.83;;
8663;SDS011;4369;47.842;13.096;2024-01-30T07:12:03;24.63;;;15.73;;
8663;SDS011;4369;47.842;13.096;2024-01-30T07:14:32;24.50;;;15.80;;
8663;SDS011;4369;47.842;13.096;2024-01-30T07:16:59;25.13;;;16.30;;
8663;SDS011;4369;47.842;13.096;2024-01-30T07:19:26;22.87;;;15.83;;
8663;SDS011;4369;47.842;13.096;2024-01-30T07:21:53;26.97;;;14.93;;
8663;SDS011;4369;47.842;13.096;2024-01-30T07:24:20;26.23;;;15.13;;
8663;SDS011;4369;47.842;13.096;2024-01-30T07:26:47;25.70;;;16.70;;
8663;SDS011;4369;47.842;13.096;2024-01-30T07:29:14;25.00;;;16.10;;
8663;SDS011;4369;47.842;13.096;2024-01-30T07:31:42;27.13;;;16.03;;
8663;SDS011;4369;47.842;13.096;2024-01-30T07:34:09;28.00;;;17.10;;
8663;SDS011;4369;47.842;13.096;2024-01-30T07:36:36;22.47;;;14.67;;
8663;SDS011;4369;47.842;13.096;2024-01-30T07:39:03;25.47;;;15.40;;
8663;SDS011;4369;47.842;13.096;2024-01-30T07:41:30;23.63;;;14.50;;
8663;SDS011;4369;47.842;13.096;2024-01-30T07:43:57;26.70;;;14.37;;
8663;SDS011;4369;47.842;13.096;2024-01-30T07:46:24;19.50;;;12.97;;
8663;SDS011;4369;47.842;13.096;2024-01-30T07:48:54;18.70;;;12.37;;
8663;SDS011;4369;47.842;13.096;2024-01-30T07:51:23;18.53;;;12.63;;
8663;SDS011;4369;47.842;13.096;2024-01-30T07:53:50;20.13;;;13.17;;
8663;SDS011;4369;47.842;13.096;2024-01-30T07:56:17;16.23;;;11.77;;
8663;SDS011;4369;47.842;13.096;2024-01-30T07:58:47;17.90;;;12.37;;
8663;SDS011;4369;47.842;13.096;2024-01-30T08:01:14;21.73;;;12.67;;
8663;SDS011;4369;47.842;13.096;2024-01-30T08:03:41;21.47;;;14.10;;
8663;SDS011;4369;47.842;13.096;2024-01-30T08:06:10;37.83;;;18.63;;
8663;SDS011;4369;47.842;13.096;2024-01-30T08:08:37;35.97;;;22.10;;
8663;SDS011;4369;47.842;13.096;2024-01-30T08:11:04;35.77;;;21.37;;
8663;SDS011;4369;47.842;13.096;2024-01-30T08:13:32;32.70;;;21.10;;
8663;SDS011;4369;47.842;13.096;2024-01-30T08:15:59;30.77;;;19.37;;
8663;SDS011;4369;47.842;13.096;2024-01-30T08:18:26;30.67;;;18.73;;
8663;SDS011;4369;47.842;13.096;2024-01-30T08:20:53;33.57;;;19.23;;
8663;SDS011;4369;47.842;13.096;2024-01-30T08:23:29;31.53;;;18.53;;
8663;SDS011;4369;47.842;13.096;2024-01-30T08:25:56;26.73;;;17.20;;
8663;SDS011;4369;47.842;13.096;2024-01-30T08:28:23;27.53;;;17.43;;
8663;SDS011;4369;47.842;13.096;2024-01-30T08:30:51;29.97;;;15.80;;
8663;SDS011;4369;47.842;13.096;2024-01-30T08:33:18;22.20;;;14.13;;
8663;SDS011;4369;47.842;13.096;2024-01-30T08:35:45;21.60;;;14.03;;
8663;SDS011;4369;47.842;13.096;2024-01-30T08:38:12;20.47;;;13.37;;
8663;SDS011;4369;47.842;13.096;2024-01-30T08:40:40;15.27;;;11.53;;
8663;SDS011;4369;47.842;13.096;2024-01-30T08:43:07;19.90;;;11.63;;
8663;SDS011;4369;47.842;13.096;2024-01-30T08:45:35;14.33;;;10.10;;
8663;SDS011;4369;47.842;13.096;2024-01-30T08:48:02;15.67;;;11.03;;
8663;SDS011;4369;47.842;13.096;2024-01-30T08:50:29;20.63;;;13.60;;
8663;SDS011;4369;47.842;13.096;2024-01-30T08:52:56;19.33;;;13.17;;
8663;SDS011;4369;47.842;13.096;2024-01-30T08:55:23;17.57;;;10.93;;
8663;SDS011;4369;47.842;13.096;2024-01-30T08:57:51;15.33;;;9.70;;
8663;SDS011;4369;47.842;13.096;2024-01-30T09:00:18;12.57;;;8.47;;
8663;SDS011;4369;47.842;13.096;2024-01-30T09:02:46;9.53;;;5.77;;
8663;SDS011;4369;47.842;13.096;2024-01-30T09:05:13;9.80;;;6.23;;
8663;SDS011;4369;47.842;13.096;2024-01-30T09:07:40;6.57;;;4.60;;
8663;SDS011;4369;47.842;13.096;2024-01-30T09:10:07;8.37;;;5.00;;
8663;SDS011;4369;47.842;13.096;2024-01-30T09:12:34;6.40;;;4.03;;
8663;SDS011;4369;47.842;13.096;2024-01-30T09:15:02;7.93;;;4.80;;
8663;SDS011;4369;47.842;13.096;2024-01-30T09:17:30;6.33;;;4.97;;
8663;SDS011;4369;47.842;13.096;2024-01-30T09:19:58;10.67;;;5.70;;
8663;SDS011;4369;47.842;13.096;2024-01-30T09:22:25;8.47;;;5.37;;
8663;SDS011;4369;47.842;13.096;2024-01-30T09:24:52;8.23;;;5.90;;
8663;SDS011;4369;47.842;13.096;2024-01-30T09:27:19;7.30;;;5.83;;
8663;SDS011;4369;47.842;13.096;2024-01-30T09:29:46;7.37;;;5.50;;
8663;SDS011;4369;47.842;13.096;2024-01-30T09:32:14;6.90;;;6.00;;
8663;SDS011;4369;47.842;13.096;2024-01-30T09:34:42;8.23;;;5.47;;
8663;SDS011;4369;47.842;13.096;2024-01-30T09:37:09;6.43;;;5.43;;
8663;SDS011;4369;47.842;13.096;2024-01-30T09:39:36;7.87;;;5.20;;
8663;SDS011;4369;47.842;13.096;2024-01-30T09:42:05;6.93;;;5.17;;
8663;SDS011;4369;47.842;13.096;2024-01-30T09:44:38;6.73;;;4.80;;
8663;SDS011;4369;47.842;13.096;2024-01-30T09:47:09;9.13;;;5.57;;
8663;SDS011;4369;47.842;13.096;2024-01-30T09:49:38;6.70;;;5.57;;
8663;SDS011;4369;47.842;13.096;2024-01-30T09:52:08;7.17;;;5.73;;
8663;SDS011;4369;47.842;13.096;2024-01-30T09:54:35;10.50;;;5.70;;
8663;SDS011;4369;47.842;13.096;2024-01-30T09:57:02;5.60;;;5.03;;
8663;SDS011;4369;47.842;13.096;2024-01-30T09:59:30;7.40;;;4.93;;
8663;SDS011;4369;47.842;13.096;2024-01-30T10:01:57;5.63;;;5.00;;
8663;SDS011;4369;47.842;13.096;2024-01-30T10:04:24;10.30;;;4.57;;
8663;SDS011;4369;47.842;13.096;2024-01-30T10:06:52;6.33;;;5.40;;
8663;SDS011;4369;47.842;13.096;2024-01-30T10:09:19;5.83;;;4.63;;
8663;SDS011;4369;47.842;13.096;2024-01-30T10:11:46;9.03;;;5.33;;
8663;SDS011;4369;47.842;13.096;2024-01-30T10:14:15;7.17;;;4.80;;
8663;SDS011;4369;47.842;13.096;2024-01-30T10:16:42;6.67;;;4.80;;
8663;SDS011;4369;47.842;13.096;2024-01-30T10:19:11;8.10;;;5.50;;
8663;SDS011;4369;47.842;13.096;2024-01-30T10:21:38;12.37;;;5.50;;
8663;SDS011;4369;47.842;13.096;2024-01-30T10:24:06;9.70;;;5.00;;
8663;SDS011;4369;47.842;13.096;2024-01-30T10:26:33;6.20;;;5.07;;
8663;SDS011;4369;47.842;13.096;2024-01-30T10:29:02;6.00;;;5.17;;
8663;SDS011;4369;47.842;13.096;2024-01-30T10:31:29;6.20;;;5.10;;
8663;SDS011;4369;47.842;13.096;2024-01-30T10:33:56;7.40;;;4.90;;
8663;SDS011;4369;47.842;13.096;2024-01-30T10:36:24;5.73;;;4.50;;
8663;SDS011;4369;47.842;13.096;2024-01-30T10:38:55;7.60;;;4.30;;
8663;SDS011;4369;47.842;13.096;2024-01-30T10:41:27;5.40;;;4.40;;
8663;SDS011;4369;47.842;13.096;2024-01-30T10:43:58;5.63;;;5.03;;
8663;SDS011;4369;47.842;13.096;2024-01-30T10:46:30;7.17;;;5.37;;
8663;SDS011;4369;47.842;13.096;2024-01-30T10:48:59;6.90;;;5.30;;
8663;SDS011;4369;47.842;13.096;2024-01-30T10:51:27;5.47;;;4.90;;
8663;SDS011;4369;47.842;13.096;2024-01-30T10:53:55;4.72;;;4.30;;
8663;SDS011;4369;47.842;13.096;2024-01-30T10:56:22;7.40;;;4.65;;
8663;SDS011;4369;47.842;13.096;2024-01-30T10:58:51;6.97;;;4.82;;
8663;SDS011;4369;47.842;13.096;2024-01-30T11:01:19;5.78;;;4.53;;
8663;SDS011;4369;47.842;13.096;2024-01-30T11:03:48;4.40;;;4.00;;
8663;SDS011;4369;47.842;13.096;2024-01-30T11:06:17;4.45;;;3.60;;
8663;SDS011;4369;47.842;13.096;2024-01-30T11:08:44;6.60;;;3.97;;
8663;SDS011;4369;47.842;13.096;2024-01-30T11:11:11;5.60;;;4.10;;
8663;SDS011;4369;47.842;13.096;2024-01-30T11:13:38;4.15;;;3.75;;
8663;SDS011;4369;47.842;13.096;2024-01-30T11:16:09;4.22;;;3.40;;
8663;SDS011;4369;47.842;13.096;2024-01-30T11:18:38;4.50;;;3.63;;
8663;SDS011;4369;47.842;13.096;2024-01-30T11:21:05;5.93;;;3.70;;
8663;SDS011;4369;47.842;13.096;2024-01-30T11:23:33;4.13;;;3.78;;
8663;SDS011;4369;47.842;13.096;2024-01-30T11:26:01;5.30;;;3.70;;
8663;SDS011;4369;47.842;13.096;2024-01-30T11:28:31;3.60;;;3.30;;
8663;SDS011;4369;47.842;13.096;2024-01-30T11:31:02;3.35;;;3.00;;
8663;SDS011;4369;47.842;13.096;2024-01-30T11:33:31;3.90;;;3.42;;
8663;SDS011;4369;47.842;13.096;2024-01-30T11:35:59;3.40;;;3.20;;
8663;SDS011;4369;47.842;13.096;2024-01-30T11:38:27;4.07;;;2.95;;
8663;SDS011;4369;47.842;13.096;2024-01-30T11:40:55;3.92;;;3.58;;
8663;SDS011;4369;47.842;13.096;2024-01-30T11:43:22;5.75;;;3.53;;
8663;SDS011;4369;47.842;13.096;2024-01-30T11:45:49;3.50;;;3.20;;
8663;SDS011;4369;47.842;13.096;2024-01-30T11:48:17;5.63;;;3.30;;
8663;SDS011;4369;47.842;13.096;2024-01-30T11:50:45;3.58;;;3.00;;
8663;SDS011;4369;47.842;13.096;2024-01-30T11:53:13;3.55;;;3.30;;
8663;SDS011;4369;47.842;13.096;2024-01-30T11:55:40;4.00;;;3.33;;
8663;SDS011;4369;47.842;13.096;2024-01-30T11:58:08;3.83;;;3.03;;
8663;SDS011;4369;47.842;13.096;2024-01-30T12:00:35;3.50;;;3.20;;
8663;SDS011;4369;47.842;13.096;2024-01-30T12:03:02;4.85;;;3.13;;
8663;SDS011;4369;47.842;13.096;2024-01-30T12:05:31;6.72;;;3.15;;
8663;SDS011;4369;47.842;13.096;2024-01-30T12:07:59;3.63;;;3.03;;
8663;SDS011;4369;47.842;13.096;2024-01-30T12:10:27;3.47;;;2.92;;
8663;SDS011;4369;47.842;13.096;2024-01-30T12:12:53;3.53;;;3.22;;
8663;SDS011;4369;47.842;13.096;2024-01-30T12:15:21;3.67;;;3.38;;
8663;SDS011;4369;47.842;13.096;2024-01-30T12:17:48;3.30;;;3.00;;
8663;SDS011;4369;47.842;13.096;2024-01-30T12:20:17;3.20;;;2.90;;
8663;SDS011;4369;47.842;13.096;2024-01-30T12:22:46;3.90;;;3.60;;
8663;SDS011;4369;47.842;13.096;2024-01-30T12:25:16;4.03;;;3.65;;
8663;SDS011;4369;47.842;13.096;2024-01-30T12:27:45;4.05;;;2.92;;
8663;SDS011;4369;47.842;13.096;2024-01-30T12:30:15;3.83;;;3.45;;
8663;SDS011;4369;47.842;13.096;2024-01-30T12:32:43;3.50;;;3.30;;
8663;SDS011;4369;47.842;13.096;2024-01-30T12:35:11;3.42;;;3.13;;
8663;SDS011;4369;47.842;13.096;2024-01-30T12:37:39;4.07;;;3.53;;
8663;SDS011;4369;47.842;13.096;2024-01-30T12:40:07;3.40;;;3.10;;
8663;SDS011;4369;47.842;13.096;2024-01-30T12:42:36;3.78;;;3.10;;
8663;SDS011;4369;47.842;13.096;2024-01-30T12:45:04;3.88;;;3.05;;
8663;SDS011;4369;47.842;13.096;2024-01-30T12:47:31;3.55;;;3.25;;
8663;SDS011;4369;47.842;13.096;2024-01-30T12:49:58;6.15;;;3.10;;
8663;SDS011;4369;47.842;13.096;2024-01-30T12:52:25;3.67;;;3.08;;
8663;SDS011;4369;47.842;13.096;2024-01-30T12:54:53;3.25;;;3.05;;
8663;SDS011;4369;47.842;13.096;2024-01-30T12:57:20;4.32;;;3.35;;
8663;SDS011;4369;47.842;13.096;2024-01-30T12:59:48;4.28;;;3.03;;
8663;SDS011;4369;47.842;13.096;2024-01-30T13:02:15;3.50;;;3.17;;
8663;SDS011;4369;47.842;13.096;2024-01-30T13:04:42;4.43;;;3.80;;
8663;SDS011;4369;47.842;13.096;2024-01-30T13:07:10;5.28;;;3.65;;
8663;SDS011;4369;47.842;13.096;2024-01-30T13:09:37;3.50;;;3.20;;
8663;SDS011;4369;47.842;13.096;2024-01-30T13:12:04;3.25;;;2.95;;
8663;SDS011;4369;47.842;13.096;2024-01-30T13:14:32;3.60;;;3.00;;
8663;SDS011;4369;47.842;13.096;2024-01-30T13:17:00;3.97;;;2.95;;
8663;SDS011;4369;47.842;13.096;2024-01-30T13:19:28;4.00;;;2.72;;
8663;SDS011;4369;47.842;13.096;2024-01-30T13:21:55;4.32;;;3.10;;
8663;SDS011;4369;47.842;13.096;2024-01-30T13:24:22;3.05;;;2.80;;
8663;SDS011;4369;47.842;13.096;2024-01-30T13:26:49;3.45;;;3.08;;
8663;SDS011;4369;47.842;13.096;2024-01-30T13:29:16;5.57;;;3.10;;
8663;SDS011;4369;47.842;13.096;2024-01-30T13:31:43;3.13;;;2.90;;
8663;SDS011;4369;47.842;13.096;2024-01-30T13:34:13;7.85;;;3.78;;
8663;SDS011;4369;47.842;13.096;2024-01-30T13:36:40;5.25;;;3.42;;
8663;SDS011;4369;47.842;13.096;2024-01-30T13:39:08;3.05;;;2.72;;
8663;SDS011;4369;47.842;13.096;2024-01-30T13:41:37;5.03;;;3.28;;
8663;SDS011;4369;47.842;13.096;2024-01-30T13:44:04;6.65;;;3.10;;
8663;SDS011;4369;47.842;13.096;2024-01-30T13:46:31;3.05;;;2.38;;
8663;SDS011;4369;47.842;13.096;2024-01-30T13:48:59;6.10;;;2.97;;
8663;SDS011;4369;47.842;13.096;2024-01-30T13:51:27;5.20;;;2.83;;
8663;SDS011;4369;47.842;13.096;2024-01-30T13:53:54;3.30;;;2.88;;
8663;SDS011;4369;47.842;13.096;2024-01-30T13:56:21;5.63;;;3.35;;
8663;SDS011;4369;47.842;13.096;2024-01-30T13:58:49;4.47;;;3.10;;
8663;SDS011;4369;47.842;13.096;2024-01-30T14:01:16;2.85;;;2.65;;
8663;SDS011;4369;47.842;13.096;2024-01-30T14:03:43;2.70;;;2.50;;
8663;SDS011;4369;47.842;13.096;2024-01-30T14:06:10;5.10;;;3.35;;
8663;SDS011;4369;47.842;13.096;2024-01-30T14:08:38;2.92;;;2.63;;
8663;SDS011;4369;47.842;13.096;2024-01-30T14:11:05;3.72;;;2.85;;
8663;SDS011;4369;47.842;13.096;2024-01-30T14:13:33;3.90;;;2.72;;
8663;SDS011;4369;47.842;13.096;2024-01-30T14:16:00;3.38;;;3.00;;
8663;SDS011;4369;47.842;13.096;2024-01-30T14:18:27;3.13;;;2.65;;
8663;SDS011;4369;47.842;13.096;2024-01-30T14:20:55;4.15;;;2.63;;
8663;SDS011;4369;47.842;13.096;2024-01-30T14:23:22;3.22;;;2.80;;
8663;SDS011;4369;47.842;13.096;2024-01-30T14:25:51;5.35;;;3.30;;
8663;SDS011;4369;47.842;13.096;2024-01-30T14:28:18;5.00;;;3.60;;
8663;SDS011;4369;47.842;13.096;2024-01-30T14:30:45;5.05;;;3.50;;
8663;SDS011;4369;47.842;13.096;2024-01-30T14:33:12;7.45;;;5.88;;
8663;SDS011;4369;47.842;13.096;2024-01-30T14:35:39;4.25;;;3.85;;
8663;SDS011;4369;47.842;13.096;2024-01-30T14:38:06;7.20;;;3.97;;
8663;SDS011;4369;47.842;13.096;2024-01-30T14:40:34;4.80;;;4.30;;
8663;SDS011;4369;47.842;13.096;2024-01-30T14:43:02;3.92;;;3.25;;
8663;SDS011;4369;47.842;13.096;2024-01-30T14:45:29;3.38;;;3.08;;
8663;SDS011;4369;47.842;13.096;2024-01-30T14:47:57;4.50;;;3.03;;